Weather at Hadsund Airfield [CLOSED]

Public forecast

Using degrees Celsius for public forecast. Weather courtesy of forecast.io.

Closest aviation weather report (METAR) to Hadsund Airfield

Closest report is Aalborg Airport, 23.7 nm (44.0 km) NNW. Retrieved 2020/10/27 08:20 UTC (1 minute ago):

EKYT 270820Z AUTO 18014KT 9999 -RA FEW022/// SCT070/// 09/08 Q0997

Closest aviation forecast (TAF) to Hadsund Airfield

Closest forecast is Aalborg Airport, 23.7 nm (44.0 km) NNW. Retrieved 2020/10/27 09:36 UTC (0 seconds ago):

TAF EKYT 270821Z 2709/2809 17010KT 9999 BKN030 TEMPO 2709/2715 19015G25KT 5000 SHRA BKN010 SCT020CB TEMPO 2715/2723 6000 -SHRA SCT020CB BECMG 2723/2802 18015KT 6000 -RA BECMG 2802/2805 17015G25KT 4000 RA BR BKN008 BECMG 2805/2808 21010KT 9999 NSW BKN020